WEATHER DATA

TODAY
Time Temp. Dewp. Hum. Wind dir Wind speed Wind gust Bar. 1h Prec. 24h Prec.
00:01 14.8 12.1 84 139 1.1 2.2 1027 0.0000 0.0000
00:11 14.6 12.1 85 138 0.8 1.9 1027.1 0.0000 0.0000
00:21 14.5 11.8 84 141 0.8 1.7 1027.2 0.0000 0.0000
00:31 14.4 11.9 85 138 0.8 1.7 1027.4 0.0000 0.0000
00:41 14.2 11.7 85 126 0.8 1.9 1027.2 0.0000 0.0000
00:51 14.1 11.8 86 145 0.8 1.9 1027.4 0.0000 0.0000
01:01 14 11.7 86 130 1.1 1.9 1027.2 0.0000 0.0000
01:12 13.8 11.3 85 140 1.4 2.8 1027.1 0.0000 0.0000
01:21 13.7 11.4 86 132 1.1 2.2 1027.2 0.0000 0.0000
01:31 13.5 11.4 87 159 1.1 2.5 1027.1 0.0000 0.0000
01:41 13.4 11.3 87 135 1.1 1.9 1027.1 0.0000 0.0000
01:52 13.2 11.1 87 143 1.1 3.1 1027.1 0.0000 0.0000
02:02 13 10.9 87 140 1.4 3.1 1027 0.0000 0.0000
02:11 12.9 10.8 87 143 1.4 2.8 1027 0.0000 0.0000
02:22 12.8 10.3 85 141 1.7 2.8 1026.9 0.0000 0.0000
02:32 12.7 10.6 87 157 0.8 1.7 1026.9 0.0000 0.0000
02:42 12.5 10 85 141 1.7 2.8 1026.8 0.0000 0.0000
02:52 12.4 10.3 87 141 1.1 2.5 1026.7 0.0000 0.0000
03:02 12.3 10 86 139 1.4 2.8 1026.7 0.0000 0.0000
03:12 12.3 10 86 129 1.4 2.8 1026.6 0.0000 0.0000
03:22 12.2 9.9 86 142 1.4 2.5 1026.6 0.0000 0.0000
03:33 12.3 10 86 138 1.4 2.2 1026.6 0.0000 0.0000
03:42 12.4 10.5 88 135 1.1 2.5 1026.5 0.0000 0.0000
03:52 12.4 10.3 87 133 0.8 1.7 1026.5 0.0000 0.0000
04:02 12.3 10.2 87 118 1.1 1.9 1026.3 0.0000 0.0000
04:13 12.2 10.3 88 116 1.1 1.9 1026.5 0.0000 0.0000
04:23 12.2 10.4 89 130 1.7 2.5 1026.3 0.0000 0.0000
04:33 12.3 10.7 90 120 0.8 1.9 1026.3 0.0000 0.0000
04:43 12.3 10.4 88 131 1.7 2.5 1026.3 0.0000 0.0000
04:53 12.3 10.2 87 132 1.1 2.5 1026.3 0.0000 0.0000
05:03 12.2 10.1 87 156 1.1 2.2 1026.3 0.0000 0.0000
05:13 12.1 10.2 88 138 1.1 2.2 1026.5 0.0000 0.0000
05:23 12 10.1 88 116 0.8 1.7 1026.5 0.0000 0.0000
05:33 11.9 10.1 89 120 0.8 1.7 1026.5 0.0000 0.0000
05:43 11.8 10.2 90 135 1.7 2.5 1026.5 0.0000 0.0000
05:54 11.8 10.2 90 129 1.4 2.2 1026.6 0.0000 0.0000
06:04 11.8 10.2 90 117 0.8 1.7 1026.5 0.0000 0.0000
06:13 11.7 10.1 90 132 1.4 2.5 1026.5 0.0000 0.0000
06:23 11.8 10 89 120 1.4 3.6 1026.6 0.0000 0.0000
06:34 11.8 10 89 126 1.7 2.5 1026.6 0.0000 0.0000
06:44 11.8 10 89 130 1.7 2.8 1026.6 0.0000 0.0000
06:54 11.9 10.3 90 124 1.4 2.5 1026.5 0.0000 0.0000
07:04 12.1 10.5 90 125 1.1 1.9 1026.5 0.0000 0.0000
07:14 12.1 10.5 90 55 0.6 1.1 1026.3 0.0000 0.0000
07:24 12.2 10.6 90 135 0.3 0.8 1026.5 0.0000 0.0000
07:34 12.3 10.5 89 45 0.3 0.8 1026.5 0.0000 0.0000
07:45 12.4 10.6 89 56 0.3 0.8 1026.5 0.0000 0.0000
07:54 12.5 10.7 89 90 0.3 0.8 1026.5 0.0000 0.0000
08:04 12.6 10.8 89 70 0.6 1.1 1026.5 0.0000 0.0000
08:15 12.7 10.9 89 90 0.6 1.1 1026.5 0.0000 0.0000
08:25 13 11.1 88 66 0.8 1.1 1026.6 0.0000 0.0000
08:34 13.1 11.2 88 69 0.8 1.1 1026.5 0.0000 0.0000
08:44 13.3 11.2 87 61 0.8 1.7 1026.5 0.0000 0.0000
08:55 13.6 11.3 86 52 1.7 2.2 1026.5 0.0000 0.0000
09:05 15.8 13.3 85 63 0.8 1.4 1026.3 0.0000 0.0000
09:15 18.9 14.8 77 64 1.1 1.9 1026.3 0.0000 0.0000
09:25 20.8 15.4 71 57 1.4 2.2 1026.3 0.0000 0.0000
09:35 20.4 14.5 69 52 1.4 2.5 1026.3 0.0000 0.0000
09:45 20.9 15.2 70 55 1.4 2.8 1026.2 0.0000 0.0000
09:55 20.8 14.5 67 43 1.4 2.2 1026.2 0.0000 0.0000
10:05 20.5 13.9 66 43 1.7 2.5 1026.2 0.0000 0.0000
10:15 21.4 15 67 34 1.9 3.3 1026.2 0.0000 0.0000
10:25 19.8 14 69 36 2.2 3.3 1026.2 0.0000 0.0000
10:35 19.1 13.5 70 38 2.5 3.9 1026.3 0.0000 0.0000
10:46 18.7 14 74 36 2.5 4.4 1026.3 0.0000 0.0000
10:55 18.6 13.9 74 37 2.5 4.2 1026.5 0.0000 0.0000
11:05 18.8 13.9 73 31 2.5 4.4 1026.6 0.0000 0.0000
11:16 19 13.8 72 37 3.3 5 1026.7 0.0000 0.0000
11:26 19.2 14.2 73 21 2.5 4.2 1026.8 0.0000 0.0000
11:35 19.3 13.7 70 22 2.2 3.9 1026.8 0.0000 0.0000
11:46 19.1 13.9 72 47 2.8 4.4 1026.8 0.0000 0.0000
11:56 19.2 14.5 74 37 2.5 4.4 1026.8 0.0000 0.0000
12:06 19.3 14.3 73 35 3.1 5 1026.8 0.0000 0.0000
12:16 19.4 13.6 69 37 3.6 5.6 1026.8 0.0000 0.0000
12:26 19.2 14.2 73 30 2.2 4.2 1026.8 0.0000 0.0000
12:36 19.4 14 71 32 2.2 3.9 1026.8 0.0000 0.0000
12:46 19.4 14.4 73 27 2.8 4.7 1026.7 0.0000 0.0000
12:56 19.8 13.3 66 39 3.9 5.6 1026.7 0.0000 0.0000
13:16 18.9 12.6 67 52 2.8 4.4 1026.7 0.0000 0.0000
13:26 18.7 13.3 71 46 2.2 4.2 1026.8 0.0000 0.0000
13:37 19 13.6 71 50 1.9 4.7 1026.7 0.0000 0.0000
13:47 18.9 13.3 70 49 2.2 4.2 1026.7 0.0000 0.0000
13:57 19 14.1 73 35 1.9 3.3 1026.8 0.0000 0.0000
14:07 19.1 13.3 69 25 2.2 3.9 1026.9 0.0000 0.0000
14:17 19 13 68 28 1.4 3.3 1026.8 0.0000 0.0000
14:27 18.9 13.7 72 47 1.1 2.2 1026.8 0.0000 0.0000
14:37 18.9 13.7 72 47 1.1 2.5 1026.7 0.0000 0.0000
14:48 18.9 13.5 71 37 1.1 3.3 1026.6 0.0000 0.0000
14:57 19 13.8 72 45 1.9 3.3 1026.6 0.0000 0.0000
15:07 19 14.1 73 39 2.2 6.1 1026.6 0.0000 0.0000
15:17 18.8 13.2 70 39 3.3 5 1026.6 0.0000 0.0000
15:28 18.8 13.7 72 40 2.8 5.3 1026.7 0.0000 0.0000
15:37 18.7 12.2 66 58 3.3 5.3 1026.7 0.0000 0.0000
15:47 18.8 13.7 72 46 1.7 3.3 1026.6 0.0000 0.0000
15:58 19.1 13.9 72 41 1.9 3.3 1026.6 0.0000 0.0000

DAY STATISTIC

2022-07-06
TEMPERATURE
AVERAGE
15.5
HIGH
21.4
10:15
LOW
11.7
06:13
PRESSURE
AVERAGE
1026.6
HIGH
1027.4
00:31
LOW
1026.2
09:45
DEWPOINT
AVERAGE
12.1
HIGH
15.4
09:25
LOW
9.9
03:22
HUMIDITY
AVERAGE
81
HIGH
90
04:33
LOW
66
10:05
WIND SPEED
AVERAGE
1.6
HIGH
3.9
12:56
WIND GUST
AVERAGE
2.8
HIGH
6.1
15:07
WIND DIRECTION
PREVAILING
NE
47.4%
N
2.1
NE
47.4
E
4.2
SE
45.3
S
1.1
SW
0.0
W
0.0
NW
0.0
PRECIPITATION
RAIN HOUR
0.0
RAIN DAY
0.0
TEMPERATURE (°C)
LOW
11.7
HIGH
21.4
AVERAGE
15.5
PRESSURE (hpa)
LOW
1026.2
HIGH
1027.4
AVERAGE
1026.6
DEVICE